Time;durP1;ratioP1;P1;durP2;ratioP2;P2;SDS_P1;SDS_P2;PMS_P1;PMS_P2;Temp;Humidity;BMP_temperature;BMP_pressure;BME280_temperature;BME280_humidity;BME280_pressure;Samples;Min_cycle;Max_cycle;Signal;HPM_P1;HPM_P2
2022/09/16 00:00:10;;;;;;;;;;;;;;;18.55;60.36;100719.84;1012934;29;665;-69
2022/09/16 00:01:01;;;;;;;;;;;;;;;18.56;59.59;100716.13;1012941;29;627;-68
2022/09/16 00:01:51;;;;;;;;;;;;;;;18.54;59.92;100718.97;1013049;29;675;-68
2022/09/16 00:02:42;;;;;;;;;;;;;;;18.54;59.84;100718.97;1013488;29;690;-68
2022/09/16 00:03:33;;;;;;;;;;;;;;;18.55;59.40;100715.28;1016276;29;792;-68
2022/09/16 00:04:24;;;;;;;;;;;;;;;18.57;59.92;100726.78;1016678;29;787;-68
2022/09/16 00:05:14;;;;;;;;;;;;;;;18.54;60.05;100718.97;1013485;29;683;-68
2022/09/16 00:06:04;;;;;;;;;;;;;;;18.53;60.52;100719.13;1012963;29;628;-68
2022/09/16 00:06:55;;;;;;;;;;;;;;;18.54;60.48;100718.13;1013027;29;643;-68
2022/09/16 00:07:45;;;;;;;;;;;;;;;18.53;59.48;100716.44;1012483;29;726;-68
2022/09/16 00:08:39;;;;;;;;;;;;;;;18.53;59.99;100719.97;1012966;29;623;-68
2022/09/16 00:09:29;;;;;;;;;;;;;;;18.53;59.89;100721.84;1013063;29;659;-69
2022/09/16 00:10:20;;;;;;;;;;;;;;;18.53;60.47;100721.84;1013002;29;695;-69
2022/09/16 00:11:10;;;;;;;;;;;;;;;18.54;60.29;100720.84;1012925;29;686;-69
2022/09/16 00:12:01;;;;;;;;;;;;;;;18.55;60.22;100714.44;1013080;29;695;-69
2022/09/16 00:12:51;;;;;;;;;;;;;;;18.55;60.44;100720.69;1012388;29;792;-69
2022/09/16 00:13:42;;;;;;;;;;;;;;;18.52;60.29;100715.59;1012642;29;695;-69
2022/09/16 00:14:32;;;;;;;;;;;;;;;18.43;60.20;100726.47;1013376;29;703;-69
2022/09/16 00:15:22;;;;;;;;;;;;;;;18.46;60.47;100721.59;1012975;29;883;-69
2022/09/16 00:16:13;;;;;;;;;;;;;;;18.48;60.65;100714.19;1012989;29;729;-69
2022/09/16 00:17:03;;;;;;;;;;;;;;;18.36;59.44;100718.97;1012572;29;1871;-69
2022/09/16 00:17:54;;;;;;;;;;;;;;;18.23;60.71;100721.19;1009317;29;646;-68
2022/09/16 00:18:44;;;;;;;;;;;;;;;18.22;60.01;100719.50;1008437;29;679;-68
2022/09/16 00:19:35;;;;;;;;;;;;;;;18.10;60.83;100720.69;1011410;29;667;-68
2022/09/16 00:20:25;;;;;;;;;;;;;;;18.23;61.18;100715.81;1013493;29;666;-68
2022/09/16 00:21:16;;;;;;;;;;;;;;;18.11;59.99;100716.16;1013529;29;666;-68
2022/09/16 00:22:06;;;;;;;;;;;;;;;18.13;60.88;100722.25;1013556;29;665;-67
2022/09/16 00:22:57;;;;;;;;;;;;;;;18.17;61.08;100720.94;1013379;29;658;-68
2022/09/16 00:23:47;;;;;;;;;;;;;;;18.01;61.35;100716.22;1013607;29;695;-68
2022/09/16 00:24:38;;;;;;;;;;;;;;;17.97;61.54;100710.28;1011400;29;662;-68
2022/09/16 00:25:28;;;;;;;;;;;;;;;18.10;60.55;100707.22;1013579;29;1027;-68
2022/09/16 00:26:19;;;;;;;;;;;;;;;18.01;60.73;100705.44;1013418;29;702;-68
2022/09/16 00:27:09;;;;;;;;;;;;;;;17.73;59.87;100707.28;1011521;29;711;-68
2022/09/16 00:28:00;;;;;;;;;;;;;;;17.60;61.37;100704.03;1013331;29;694;-68
2022/09/16 00:28:50;;;;;;;;;;;;;;;17.54;61.97;100708.19;1013560;29;651;-68
2022/09/16 00:29:41;;;;;;;;;;;;;;;17.61;62.40;100713.81;1013605;29;752;-68
2022/09/16 00:30:31;;;;;;;;;;;;;;;17.61;61.09;100716.50;1012354;29;679;-68
2022/09/16 00:31:22;;;;;;;;;;;;;;;17.46;61.33;100726.06;1013529;29;631;-68
2022/09/16 00:32:12;;;;;;;;;;;;;;;17.49;61.40;100726.63;1013384;29;731;-68
2022/09/16 00:33:02;;;;;;;;;;;;;;;17.52;62.35;100722.81;1013546;29;882;-68
2022/09/16 00:33:53;;;;;;;;;;;;;;;17.51;61.87;100719.25;1012426;29;714;-68
2022/09/16 00:34:43;;;;;;;;;;;;;;;17.76;62.48;100735.78;1013527;29;878;-68
2022/09/16 00:35:34;;;;;;;;;;;;;;;17.88;61.47;100726.50;1011079;29;711;-68
2022/09/16 00:36:24;;;;;;;;;;;;;;;18.00;61.28;100720.75;1012712;29;773;-68
2022/09/16 00:37:15;;;;;;;;;;;;;;;17.78;60.59;100715.75;1013965;29;1915;-68
2022/09/16 00:38:06;;;;;;;;;;;;;;;17.71;61.50;100719.22;1017211;29;682;-68
2022/09/16 00:38:56;;;;;;;;;;;;;;;17.73;62.52;100717.22;1015107;29;632;-68
2022/09/16 00:39:50;;;;;;;;;;;;;;;17.61;61.95;100708.44;1012764;29;706;-69
2022/09/16 00:40:40;;;;;;;;;;;;;;;17.49;61.78;100715.84;1011990;29;541;-68
2022/09/16 00:41:32;;;;;;;;;;;;;;;17.72;62.11;100720.91;1017341;29;671;-68
2022/09/16 00:42:22;;;;;;;;;;;;;;;17.87;61.32;100719.44;1015346;29;707;-68
2022/09/16 00:43:13;;;;;;;;;;;;;;;17.40;60.61;100711.34;1017400;29;631;-68
2022/09/16 00:44:03;;;;;;;;;;;;;;;17.20;62.44;100720.47;1016176;29;746;-68
2022/09/16 00:44:54;;;;;;;;;;;;;;;17.36;62.43;100715.34;1017429;29;678;-68
2022/09/16 00:45:44;;;;;;;;;;;;;;;17.59;62.04;100718.50;1016898;29;702;-68
2022/09/16 00:46:34;;;;;;;;;;;;;;;17.74;62.44;100717.06;1017380;29;721;-68
2022/09/16 00:47:25;;;;;;;;;;;;;;;17.88;61.62;100719.28;1016820;29;1176;-68
2022/09/16 00:48:15;;;;;;;;;;;;;;;17.99;61.25;100718.22;1016811;29;632;-68
2022/09/16 00:49:06;;;;;;;;;;;;;;;17.98;61.05;100722.75;1016816;29;651;-68
2022/09/16 00:49:58;;;;;;;;;;;;;;;18.04;61.14;100715.94;1016917;29;631;-68
2022/09/16 00:50:50;;;;;;;;;;;;;;;18.09;60.77;100719.03;1016344;29;679;-68
2022/09/16 00:51:40;;;;;;;;;;;;;;;18.08;60.77;100720.03;1016836;29;627;-68
2022/09/16 00:52:31;;;;;;;;;;;;;;;18.14;61.61;100716.69;1019227;29;659;-68
2022/09/16 00:53:21;;;;;;;;;;;;;;;17.97;61.59;100722.91;1021081;29;726;-68
2022/09/16 00:54:11;;;;;;;;;;;;;;;17.96;61.52;100723.91;1017138;29;645;-68
2022/09/16 00:55:02;;;;;;;;;;;;;;;17.82;61.94;100727.09;1017026;29;812;-68
2022/09/16 00:55:53;;;;;;;;;;;;;;;17.71;62.73;100730.00;1017000;29;687;-67
2022/09/16 00:56:43;;;;;;;;;;;;;;;17.59;62.33;100731.97;1017571;29;746;-68
2022/09/16 00:57:34;;;;;;;;;;;;;;;17.49;62.02;100729.34;1014152;29;1974;-68
2022/09/16 00:58:24;;;;;;;;;;;;;;;17.35;62.62;100725.28;1016737;29;1966;-68
2022/09/16 00:59:15;;;;;;;;;;;;;;;17.27;61.65;100729.66;1016063;29;651;-68
2022/09/16 01:00:06;;;;;;;;;;;;;;;17.13;62.67;100722.91;1012745;29;625;-68
2022/09/16 01:00:57;;;;;;;;;;;;;;;17.24;63.82;100721.88;1013113;29;707;-68
2022/09/16 01:01:47;;;;;;;;;;;;;;;17.11;62.40;100716.81;1013233;29;636;-68
2022/09/16 01:02:38;;;;;;;;;;;;;;;17.33;63.13;100723.72;1013101;29;726;-68
2022/09/16 01:03:28;;;;;;;;;;;;;;;17.42;62.68;100720.13;1009973;29;663;-68
2022/09/16 01:04:18;;;;;;;;;;;;;;;17.31;62.44;100717.63;1008862;29;620;-68
2022/09/16 01:05:11;;;;;;;;;;;;;;;17.37;62.95;100716.19;1013083;29;722;-68
2022/09/16 01:06:01;;;;;;;;;;;;;;;17.56;62.92;100727.72;1013245;29;667;-68
2022/09/16 01:06:51;;;;;;;;;;;;;;;17.64;62.26;100727.88;1013654;29;631;-68
2022/09/16 01:07:42;;;;;;;;;;;;;;;17.66;62.26;100725.91;1013706;29;770;-68
2022/09/16 01:08:32;;;;;;;;;;;;;;;17.76;62.12;100727.69;1013083;29;601;-69
2022/09/16 01:09:24;;;;;;;;;;;;;;;17.84;62.38;100728.66;1013609;29;738;-68
2022/09/16 01:10:14;;;;;;;;;;;;;;;17.84;61.49;100725.97;1014249;29;707;-68
2022/09/16 01:11:05;;;;;;;;;;;;;;;17.87;61.79;100730.22;1013172;29;667;-68
2022/09/16 01:11:55;;;;;;;;;;;;;;;17.67;62.60;100730.28;1013833;29;714;-68
2022/09/16 01:12:46;;;;;;;;;;;;;;;17.56;62.62;100725.03;1013679;29;718;-68
2022/09/16 01:13:36;;;;;;;;;;;;;;;17.57;62.13;100724.03;1012981;29;726;-69
2022/09/16 01:15:36;;;;;;;;;;;;;;;17.61;62.73;100727.28;1013473;29;722;-69
2022/09/16 01:16:27;;;;;;;;;;;;;;;17.72;63.02;100726.31;1012987;29;619;-69
2022/09/16 01:17:18;;;;;;;;;;;;;;;17.76;62.48;100723.16;1014211;29;1890;-69
2022/09/16 01:18:08;;;;;;;;;;;;;;;17.77;62.60;100721.28;1015993;29;1612;-69
2022/09/16 01:18:59;;;;;;;;;;;;;;;17.83;62.51;100724.25;1016951;29;1536;-68
2022/09/16 01:19:49;;;;;;;;;;;;;;;17.92;61.71;100725.19;1018066;29;750;-70
2022/09/16 01:20:40;;;;;;;;;;;;;;;17.86;62.60;100728.50;1018097;29;640;-69
2022/09/16 01:21:30;;;;;;;;;;;;;;;17.47;61.77;100723.25;1017883;29;659;-69
2022/09/16 01:22:20;;;;;;;;;;;;;;;17.55;63.10;100726.06;1017961;29;711;-69
2022/09/16 01:23:11;;;;;;;;;;;;;;;17.69;63.12;100722.91;1018052;29;659;-70
2022/09/16 01:24:02;;;;;;;;;;;;;;;17.78;62.83;100725.69;1013238;29;667;-68
2022/09/16 01:24:53;;;;;;;;;;;;;;;17.83;62.13;100726.09;1013349;29;679;-68
2022/09/16 01:25:43;;;;;;;;;;;;;;;17.71;62.76;100735.41;1017376;29;1264;-68
2022/09/16 01:26:34;;;;;;;;;;;;;;;17.82;62.01;100733.34;1020800;29;718;-68
2022/09/16 01:27:24;;;;;;;;;;;;;;;17.82;62.93;100727.94;1020837;29;678;-69
2022/09/16 01:28:15;;;;;;;;;;;;;;;17.88;62.95;100731.91;1020726;29;717;-69
2022/09/16 01:29:05;;;;;;;;;;;;;;;17.91;62.37;100737.00;1020990;29;639;-69
2022/09/16 01:29:56;;;;;;;;;;;;;;;17.93;62.07;100735.84;1020865;29;624;-69
2022/09/16 01:30:46;;;;;;;;;;;;;;;17.95;62.52;100732.97;1020882;29;686;-69
2022/09/16 01:31:37;;;;;;;;;;;;;;;17.96;62.58;100732.00;1021373;29;635;-68
2022/09/16 01:32:28;;;;;;;;;;;;;;;17.97;61.58;100734.53;1020748;29;714;-69
2022/09/16 01:33:18;;;;;;;;;;;;;;;17.99;62.22;100729.00;1020892;29;741;-69
2022/09/16 01:34:08;;;;;;;;;;;;;;;17.93;62.32;100729.59;1020854;29;698;-69
2022/09/16 01:35:01;;;;;;;;;;;;;;;17.81;62.90;100728.94;1020843;29;698;-68
2022/09/16 01:35:51;;;;;;;;;;;;;;;17.89;62.87;100729.06;1021354;29;568;-67
2022/09/16 01:36:42;;;;;;;;;;;;;;;17.94;62.11;100728.59;1020796;29;686;-68
2022/09/16 01:37:32;;;;;;;;;;;;;;;17.98;62.39;100728.16;1020443;29;1968;-68
2022/09/16 01:38:23;;;;;;;;;;;;;;;17.99;62.55;100734.41;1020768;29;636;-68
2022/09/16 01:39:13;;;;;;;;;;;;;;;17.99;61.68;100731.69;1020403;29;647;-68
2022/09/16 01:40:04;;;;;;;;;;;;;;;17.99;61.77;100729.84;1020909;29;718;-68
2022/09/16 01:40:54;;;;;;;;;;;;;;;18.00;62.44;100728.00;1020381;29;699;-69
2022/09/16 01:41:45;;;;;;;;;;;;;;;18.00;61.13;100730.69;1020209;29;698;-68
2022/09/16 01:42:35;;;;;;;;;;;;;;;18.00;61.56;100731.56;1020661;29;1625;-68
2022/09/16 01:43:25;;;;;;;;;;;;;;;18.02;62.18;100723.31;1020751;29;687;-69
2022/09/16 01:44:16;;;;;;;;;;;;;;;17.99;61.50;100729.00;1020591;29;1608;-69
2022/09/16 01:45:07;;;;;;;;;;;;;;;18.00;61.65;100728.00;1021253;29;945;-68
2022/09/16 01:45:57;;;;;;;;;;;;;;;17.96;61.84;100719.34;1020954;29;643;-69
2022/09/16 01:46:48;;;;;;;;;;;;;;;17.98;61.86;100727.31;1020803;29;1144;-69
2022/09/16 01:47:38;;;;;;;;;;;;;;;18.00;61.38;100726.16;1013163;29;674;-69
2022/09/16 01:48:29;;;;;;;;;;;;;;;18.01;61.99;100727.84;1012682;29;679;-69
2022/09/16 01:49:19;;;;;;;;;;;;;;;17.87;60.54;100732.91;1016300;29;713;-68
2022/09/16 01:50:09;;;;;;;;;;;;;;;17.65;62.62;100731.44;1016835;29;685;-68
2022/09/16 01:51:00;;;;;;;;;;;;;;;17.66;62.10;100727.75;1015815;29;710;-69
2022/09/16 01:51:50;;;;;;;;;;;;;;;17.54;62.48;100729.75;1016005;29;678;-69
2022/09/16 01:52:41;;;;;;;;;;;;;;;17.72;62.99;100731.69;1015751;29;643;-69
2022/09/16 01:53:31;;;;;;;;;;;;;;;17.78;62.51;100731.94;1017362;29;647;-69
2022/09/16 01:54:22;;;;;;;;;;;;;;;17.67;61.93;100732.97;1015672;29;664;-68
2022/09/16 01:55:12;;;;;;;;;;;;;;;17.79;62.29;100739.03;1015451;29;730;-68
2022/09/16 01:56:03;;;;;;;;;;;;;;;17.84;61.88;100733.19;1015818;29;769;-68
2022/09/16 01:56:53;;;;;;;;;;;;;;;17.77;62.05;100729.38;1017392;29;613;-69
2022/09/16 01:57:44;;;;;;;;;;;;;;;17.71;63.05;100730.00;1017214;29;1651;-69
2022/09/16 01:58:34;;;;;;;;;;;;;;;17.79;62.53;100730.94;1020854;29;713;-69
2022/09/16 01:59:24;;;;;;;;;;;;;;;17.87;62.55;100731.06;1021220;29;677;-68
2022/09/16 02:00:15;;;;;;;;;;;;;;;17.92;61.94;100728.75;1020778;29;615;-68
2022/09/16 02:01:06;;;;;;;;;;;;;;;17.95;61.92;100725.75;1020811;29;659;-68
2022/09/16 02:01:56;;;;;;;;;;;;;;;17.96;61.90;100724.75;1021310;29;667;-68
2022/09/16 02:02:46;;;;;;;;;;;;;;;17.94;61.88;100723.19;1020714;29;639;-68
2022/09/16 02:03:37;;;;;;;;;;;;;;;17.98;62.07;100732.69;1020649;29;643;-68
2022/09/16 02:04:27;;;;;;;;;;;;;;;18.00;61.43;100736.09;1020224;29;690;-68
2022/09/16 02:05:18;;;;;;;;;;;;;;;18.00;61.42;100720.75;1020575;29;643;-68
2022/09/16 02:06:08;;;;;;;;;;;;;;;17.98;61.30;100725.47;1020836;29;856;-68
2022/09/16 02:06:59;;;;;;;;;;;;;;;17.96;61.49;100727.44;1016567;29;635;-68
2022/09/16 02:07:49;;;;;;;;;;;;;;;17.91;62.30;100726.22;1015485;29;710;-68
2022/09/16 02:08:39;;;;;;;;;;;;;;;17.93;61.91;100727.75;1020627;29;639;-68
2022/09/16 02:09:30;;;;;;;;;;;;;;;17.91;61.71;100728.91;1020483;29;682;-68
2022/09/16 02:10:21;;;;;;;;;;;;;;;17.95;62.03;100733.84;1020664;29;647;-68
2022/09/16 02:11:11;;;;;;;;;;;;;;;17.96;61.26;100729.28;1020832;29;741;-68
2022/09/16 02:12:04;;;;;;;;;;;;;;;17.97;62.25;100717.50;1020634;29;635;-68
2022/09/16 02:12:54;;;;;;;;;;;;;;;17.89;62.28;100717.44;1020283;29;675;-68
2022/09/16 02:13:45;;;;;;;;;;;;;;;17.89;62.16;100717.44;1020667;29;666;-68
2022/09/16 02:14:35;;;;;;;;;;;;;;;17.94;61.31;100726.75;1020647;29;671;-68
2022/09/16 02:15:25;;;;;;;;;;;;;;;17.96;61.55;100726.59;1020696;29;674;-68
2022/09/16 02:16:16;;;;;;;;;;;;;;;17.80;62.19;100724.56;1020648;29;651;-68
2022/09/16 02:17:06;;;;;;;;;;;;;;;17.92;61.36;100728.75;1020797;29;654;-68
2022/09/16 02:17:57;;;;;;;;;;;;;;;17.94;61.51;100720.50;1017228;29;1372;-68
2022/09/16 02:18:48;;;;;;;;;;;;;;;17.95;61.83;100727.59;1017229;29;734;-68
2022/09/16 02:19:38;;;;;;;;;;;;;;;17.98;61.49;100721.91;1017294;29;902;-68
2022/09/16 02:20:29;;;;;;;;;;;;;;;18.00;61.85;100717.22;1017272;29;647;-68
2022/09/16 02:21:20;;;;;;;;;;;;;;;18.01;61.56;100713.53;1017260;29;880;-68
2022/09/16 02:22:10;;;;;;;;;;;;;;;18.00;61.89;100712.69;1017345;29;702;-68
2022/09/16 02:23:01;;;;;;;;;;;;;;;18.02;61.51;100723.31;1017320;29;630;-68
2022/09/16 02:23:51;;;;;;;;;;;;;;;18.02;61.29;100717.91;1017394;29;737;-68
2022/09/16 02:24:41;;;;;;;;;;;;;;;18.02;61.63;100717.91;1017204;29;804;-68
2022/09/16 02:25:32;;;;;;;;;;;;;;;18.02;61.66;100717.91;1017286;29;682;-68
2022/09/16 02:26:23;;;;;;;;;;;;;;;18.01;61.30;100725.16;1017250;29;686;-68
2022/09/16 02:27:13;;;;;;;;;;;;;;;18.02;61.24;100723.31;1017288;29;687;-68
2022/09/16 02:28:06;;;;;;;;;;;;;;;17.99;61.46;100719.06;1017274;29;638;-68
2022/09/16 02:28:56;;;;;;;;;;;;;;;17.94;61.56;100732.13;1017759;29;725;-68
2022/09/16 02:29:47;;;;;;;;;;;;;;;17.79;62.52;100732.78;1017183;29;654;-68
2022/09/16 02:30:37;;;;;;;;;;;;;;;17.67;61.73;100734.84;1017139;29;683;-68
2022/09/16 02:31:28;;;;;;;;;;;;;;;17.53;63.09;100738.81;1017246;29;623;-68
2022/09/16 02:32:18;;;;;;;;;;;;;;;17.51;62.37;100746.22;1017285;29;675;-69
2022/09/16 02:33:08;;;;;;;;;;;;;;;17.17;63.77;100753.09;1017189;29;711;-69
2022/09/16 02:33:59;;;;;;;;;;;;;;;17.40;63.79;100737.44;1017257;29;635;-69
2022/09/16 02:34:49;;;;;;;;;;;;;;;17.55;62.45;100758.41;1017097;29;655;-68
2022/09/16 02:35:40;;;;;;;;;;;;;;;17.60;62.38;100757.94;1017146;29;672;-68
2022/09/16 02:36:30;;;;;;;;;;;;;;;17.35;61.24;100756.75;1017201;29;651;-68
2022/09/16 02:37:20;;;;;;;;;;;;;;;16.90;63.08;100757.34;1019180;29;1911;-69
2022/09/16 02:38:11;;;;;;;;;;;;;;;16.72;64.07;100748.28;1020738;29;682;-68
2022/09/16 02:39:01;;;;;;;;;;;;;;;16.68;63.88;100754.94;1020476;29;1614;-68
2022/09/16 02:39:53;;;;;;;;;;;;;;;16.59;64.33;100750.38;1020530;29;749;-69
2022/09/16 02:40:44;;;;;;;;;;;;;;;16.57;64.22;100737.06;1021072;29;596;-68
2022/09/16 02:41:34;;;;;;;;;;;;;;;16.70;64.25;100746.72;1021228;29;754;-68
2022/09/16 02:42:25;;;;;;;;;;;;;;;16.90;63.74;100735.81;1020526;29;647;-68
2022/09/16 02:43:15;;;;;;;;;;;;;;;16.95;63.38;100732.72;1020573;29;687;-69
2022/09/16 02:44:06;;;;;;;;;;;;;;;17.04;64.20;100728.28;1020555;29;643;-68
2022/09/16 02:44:56;;;;;;;;;;;;;;;17.07;63.51;100728.00;1020582;29;651;-68
2022/09/16 02:45:46;;;;;;;;;;;;;;;16.97;62.32;100726.19;1020465;29;666;-69
2022/09/16 02:46:37;;;;;;;;;;;;;;;16.97;63.94;100728.03;1020575;29;778;-69
2022/09/16 02:47:27;;;;;;;;;;;;;;;17.07;63.05;100719.94;1017119;29;615;-69
2022/09/16 02:48:18;;;;;;;;;;;;;;;17.02;62.21;100731.97;1015504;29;647;-69
2022/09/16 02:49:09;;;;;;;;;;;;;;;17.04;62.94;100725.59;1015640;29;636;-69
2022/09/16 02:49:59;;;;;;;;;;;;;;;16.83;63.50;100723.94;1017777;29;659;-69
2022/09/16 02:50:50;;;;;;;;;;;;;;;16.96;63.89;100721.81;1015479;29;703;-69
2022/09/16 02:51:40;;;;;;;;;;;;;;;17.12;63.75;100717.66;1015584;29;710;-69
2022/09/16 02:52:31;;;;;;;;;;;;;;;17.04;62.75;100714.81;1016894;29;728;-69
2022/09/16 02:53:24;;;;;;;;;;;;;;;17.09;63.45;100713.41;1016944;29;690;-69
2022/09/16 02:54:14;;;;;;;;;;;;;;;17.28;63.16;100723.28;1017656;29;698;-69
2022/09/16 02:55:05;;;;;;;;;;;;;;;17.28;63.37;100721.44;1015473;29;1585;-69
2022/09/16 02:55:55;;;;;;;;;;;;;;;17.38;62.60;100725.97;1012945;29;817;-69
2022/09/16 02:56:46;;;;;;;;;;;;;;;17.48;63.00;100719.56;1012349;29;628;-69
2022/09/16 02:57:37;;;;;;;;;;;;;;;17.50;62.46;100727.50;1016133;29;1958;-69
2022/09/16 02:58:27;;;;;;;;;;;;;;;17.43;63.17;100720.97;1017923;29;674;-69
2022/09/16 02:59:18;;;;;;;;;;;;;;;17.50;63.05;100717.56;1016908;29;840;-69
2022/09/16 03:00:08;;;;;;;;;;;;;;;17.53;62.76;100722.66;1018412;29;1572;-69
2022/09/16 03:00:59;;;;;;;;;;;;;;;17.53;62.65;100722.66;1016504;29;690;-69
2022/09/16 03:01:49;;;;;;;;;;;;;;;17.59;63.04;100718.50;1016550;29;730;-69
2022/09/16 03:02:40;;;;;;;;;;;;;;;17.54;62.89;100718.13;1017115;29;628;-69
2022/09/16 03:03:30;;;;;;;;;;;;;;;17.58;62.87;100716.81;1016722;29;643;-70
2022/09/16 03:04:21;;;;;;;;;;;;;;;17.62;62.68;100705.59;1016593;29;669;-70
2022/09/16 03:05:11;;;;;;;;;;;;;;;17.64;62.81;100706.31;1016570;29;821;-69
2022/09/16 03:06:02;;;;;;;;;;;;;;;17.67;62.33;100708.72;1016378;29;659;-69
2022/09/16 03:06:52;;;;;;;;;;;;;;;17.66;62.72;100723.19;1016556;29;632;-69
2022/09/16 03:07:42;;;;;;;;;;;;;;;17.66;62.68;100719.66;1016197;29;556;-70
2022/09/16 03:08:33;;;;;;;;;;;;;;;17.66;62.47;100723.19;1017768;29;1730;-69
2022/09/16 03:09:23;;;;;;;;;;;;;;;17.68;63.01;100745.47;1020606;29;686;-70
2022/09/16 03:10:14;;;;;;;;;;;;;;;17.49;62.35;100732.03;1020377;29;686;-69
2022/09/16 03:11:04;;;;;;;;;;;;;;;17.53;63.25;100736.13;1020485;29;771;-69
2022/09/16 03:11:55;;;;;;;;;;;;;;;17.43;62.53;100740.69;1019820;29;637;-69
2022/09/16 03:12:45;;;;;;;;;;;;;;;17.47;63.41;100736.72;1020451;29;674;-69
2022/09/16 03:13:36;;;;;;;;;;;;;;;17.53;62.62;100728.06;1020406;29;615;-69
2022/09/16 03:14:26;;;;;;;;;;;;;;;17.59;62.15;100738.22;1020514;29;694;-69
2022/09/16 03:15:17;;;;;;;;;;;;;;;17.47;63.51;100728.63;1019831;29;734;-69
2022/09/16 03:16:07;;;;;;;;;;;;;;;17.50;62.90;100735.56;1020169;29;722;-69
2022/09/16 03:16:58;;;;;;;;;;;;;;;17.07;62.95;100730.69;1020410;29;648;-68
2022/09/16 03:17:49;;;;;;;;;;;;;;;17.13;64.45;100733.69;1021094;29;742;-69
2022/09/16 03:18:39;;;;;;;;;;;;;;;17.10;62.96;100733.97;1020366;29;702;-69
2022/09/16 03:19:29;;;;;;;;;;;;;;;17.13;63.64;100735.53;1020371;29;848;-69
2022/09/16 03:20:20;;;;;;;;;;;;;;;16.94;64.15;100726.47;1019859;29;647;-68
2022/09/16 03:21:10;;;;;;;;;;;;;;;16.79;64.04;100722.53;1020090;29;726;-69
2022/09/16 03:22:01;;;;;;;;;;;;;;;16.98;64.22;100724.34;1019930;29;655;-69
2022/09/16 03:22:51;;;;;;;;;;;;;;;17.10;63.90;100725.03;1020405;29;750;-68
2022/09/16 03:23:45;;;;;;;;;;;;;;;17.07;64.19;100725.31;1020415;29;694;-69
2022/09/16 03:24:36;;;;;;;;;;;;;;;17.13;63.81;100724.75;1020959;29;710;-69
2022/09/16 03:25:26;;;;;;;;;;;;;;;17.14;64.06;100723.75;1020552;29;758;-69
2022/09/16 03:26:17;;;;;;;;;;;;;;;17.00;63.80;100714.28;1016438;29;735;-68
2022/09/16 03:27:07;;;;;;;;;;;;;;;17.23;63.58;100729.09;1012597;29;806;-69
2022/09/16 03:27:58;;;;;;;;;;;;;;;17.02;63.87;100727.63;1012514;29;797;-69
2022/09/16 03:28:48;;;;;;;;;;;;;;;16.98;63.13;100722.50;1013101;29;671;-69
2022/09/16 03:29:38;;;;;;;;;;;;;;;17.19;63.69;100724.19;1012824;29;659;-69
2022/09/16 03:30:29;;;;;;;;;;;;;;;17.26;63.24;100720.75;1013426;29;631;-69
2022/09/16 03:31:19;;;;;;;;;;;;;;;17.21;63.24;100719.47;1013543;29;649;-69
2022/09/16 03:32:10;;;;;;;;;;;;;;;17.38;63.56;100720.59;1012603;29;628;-69
2022/09/16 03:33:01;;;;;;;;;;;;;;;17.48;63.34;100716.84;1012520;29;648;-69
2022/09/16 03:33:51;;;;;;;;;;;;;;;17.52;63.02;100709.34;1013666;29;631;-69
2022/09/16 03:34:41;;;;;;;;;;;;;;;17.52;62.33;100710.19;1012703;29;628;-68
2022/09/16 03:35:32;;;;;;;;;;;;;;;17.56;62.22;100708.88;1013072;29;651;-68
2022/09/16 03:36:22;;;;;;;;;;;;;;;17.37;62.29;100717.03;1012596;29;665;-68
2022/09/16 03:37:13;;;;;;;;;;;;;;;17.37;63.35;100716.19;1012356;29;1919;-68
2022/09/16 03:38:04;;;;;;;;;;;;;;;17.42;63.35;100706.66;1013565;29;659;-68
2022/09/16 03:38:54;;;;;;;;;;;;;;;17.52;63.25;100709.34;1013090;29;717;-68
2022/09/16 03:39:45;;;;;;;;;;;;;;;17.56;62.79;100713.41;1012575;29;623;-68
2022/09/16 03:40:36;;;;;;;;;;;;;;;17.53;62.61;100711.03;1012601;29;674;-68
2022/09/16 03:41:26;;;;;;;;;;;;;;;17.57;63.14;100705.19;1013593;29;785;-68
2022/09/16 03:42:17;;;;;;;;;;;;;;;17.58;63.18;100706.88;1012477;29;635;-68
2022/09/16 03:43:07;;;;;;;;;;;;;;;17.59;62.85;100703.19;1012515;29;643;-68
2022/09/16 03:43:57;;;;;;;;;;;;;;;17.61;62.19;100703.88;1013106;29;702;-68
2022/09/16 03:44:48;;;;;;;;;;;;;;;17.61;62.76;100706.59;1012460;29;647;-68
2022/09/16 03:45:41;;;;;;;;;;;;;;;17.61;62.49;100703.03;1012551;29;678;-68
2022/09/16 03:46:32;;;;;;;;;;;;;;;17.62;62.54;100700.19;1014797;29;1573;-69
2022/09/16 03:47:23;;;;;;;;;;;;;;;17.60;62.97;100704.88;1017442;29;1156;-68
2022/09/16 03:48:13;;;;;;;;;;;;;;;17.63;62.84;100707.28;1016302;29;632;-68
2022/09/16 03:49:04;;;;;;;;;;;;;;;17.65;62.29;100708.03;1016851;29;616;-69
2022/09/16 03:49:54;;;;;;;;;;;;;;;17.64;62.62;100705.47;1016871;29;652;-68
2022/09/16 03:50:44;;;;;;;;;;;;;;;17.62;61.82;100704.75;1016931;29;659;-68
2022/09/16 03:51:35;;;;;;;;;;;;;;;17.56;62.80;100708.88;1016968;29;646;-69
2022/09/16 03:52:25;;;;;;;;;;;;;;;17.38;63.15;100697.16;1016931;29;710;-69
2022/09/16 03:53:16;;;;;;;;;;;;;;;17.31;62.22;100701.47;1016907;29;659;-69
2022/09/16 03:54:07;;;;;;;;;;;;;;;17.40;63.14;100707.78;1016934;29;659;-68
2022/09/16 03:54:57;;;;;;;;;;;;;;;17.47;62.94;100698.13;1016904;29;690;-68
2022/09/16 03:55:48;;;;;;;;;;;;;;;17.51;62.41;100700.41;1016991;29;647;-69
2022/09/16 03:56:38;;;;;;;;;;;;;;;17.56;62.20;100698.09;1016498;29;667;-69
2022/09/16 03:57:29;;;;;;;;;;;;;;;17.26;61.36;100709.13;1016768;29;1987;-69
2022/09/16 03:58:19;;;;;;;;;;;;;;;17.39;62.68;100704.25;1016389;29;656;-69
2022/09/16 03:59:10;;;;;;;;;;;;;;;17.44;63.30;100703.81;1016905;29;631;-69
2022/09/16 04:00:00;;;;;;;;;;;;;;;17.51;62.79;100708.47;1016856;29;703;-68
2022/09/16 04:00:51;;;;;;;;;;;;;;;17.56;62.71;100700.78;1016861;29;616;-69
2022/09/16 04:01:44;;;;;;;;;;;;;;;17.56;62.36;100700.78;1016473;29;683;-69
2022/09/16 04:02:34;;;;;;;;;;;;;;;17.56;62.19;100699.94;1016340;29;671;-68
2022/09/16 04:03:25;;;;;;;;;;;;;;;17.60;61.94;100701.34;1016835;29;738;-69
2022/09/16 04:04:15;;;;;;;;;;;;;;;17.60;61.57;100699.50;1016749;29;676;-69
2022/09/16 04:05:08;;;;;;;;;;;;;;;17.59;62.26;100697.81;1016860;29;707;-69
2022/09/16 04:06:01;;;;;;;;;;;;;;;17.64;61.92;100697.38;1016011;29;624;-69
2022/09/16 04:06:52;;;;;;;;;;;;;;;17.62;62.08;100700.19;1013870;29;1518;-69
2022/09/16 04:07:42;;;;;;;;;;;;;;;17.63;62.34;100698.34;1012067;29;648;-69
2022/09/16 04:08:36;;;;;;;;;;;;;;;17.63;61.93;100696.50;1013805;29;1520;-69
2022/09/16 04:09:26;;;;;;;;;;;;;;;17.64;62.22;100706.31;1011617;29;663;-69
2022/09/16 04:10:16;;;;;;;;;;;;;;;17.64;61.95;100705.47;1011793;29;643;-69
2022/09/16 04:11:07;;;;;;;;;;;;;;;17.38;60.96;100701.72;1015230;29;635;-69
2022/09/16 04:11:57;;;;;;;;;;;;;;;17.26;62.46;100703.72;1017476;29;646;-69
2022/09/16 04:12:48;;;;;;;;;;;;;;;17.41;62.62;100702.25;1017452;29;679;-69
2022/09/16 04:13:38;;;;;;;;;;;;;;;17.52;61.47;100710.19;1017497;29;913;-69
2022/09/16 04:14:29;;;;;;;;;;;;;;;17.58;62.30;100703.34;1016923;29;722;-69
2022/09/16 04:15:19;;;;;;;;;;;;;;;17.60;61.64;100704.88;1016942;29;659;-69
2022/09/16 04:16:09;;;;;;;;;;;;;;;17.63;61.23;100707.28;1017342;29;710;-69
2022/09/16 04:17:00;;;;;;;;;;;;;;;17.66;61.38;100701.63;1017357;29;714;-68
2022/09/16 04:17:50;;;;;;;;;;;;;;;17.60;61.72;100704.88;1017478;29;707;-68
2022/09/16 04:18:41;;;;;;;;;;;;;;;17.63;61.69;100703.75;1017456;29;648;-68
2022/09/16 04:19:31;;;;;;;;;;;;;;;17.64;61.84;100711.72;1017324;29;631;-68
2022/09/16 04:20:22;;;;;;;;;;;;;;;17.61;61.14;100714.66;1014755;29;683;-68
2022/09/16 04:21:13;;;;;;;;;;;;;;;17.66;61.01;100707.03;1015660;29;812;-68
2022/09/16 04:22:03;;;;;;;;;;;;;;;17.65;61.50;100705.34;1017470;29;725;-69
2022/09/16 04:22:54;;;;;;;;;;;;;;;17.67;61.36;100706.03;1017587;29;663;-69
2022/09/16 04:23:44;;;;;;;;;;;;;;;17.65;61.09;100699.94;1017493;29;688;-69
2022/09/16 04:24:34;;;;;;;;;;;;;;;17.41;61.67;100712.19;1016919;29;671;-69
2022/09/16 04:25:25;;;;;;;;;;;;;;;17.54;62.29;100707.34;1016859;29;714;-69
2022/09/16 04:26:15;;;;;;;;;;;;;;;17.57;62.14;100707.88;1016351;29;1671;-69
2022/09/16 04:27:06;;;;;;;;;;;;;;;17.38;61.95;100709.81;1016586;29;826;-69